sensor_id;sensor_type;location;lat;lon;timestamp;temperature;humidity
6752;DHT22;3413;47.680;9.166;2024-03-23T00:54:51;14.50;63.10
6752;DHT22;3413;47.680;9.166;2024-03-23T00:59:52;14.40;63.00
6752;DHT22;3413;47.680;9.166;2024-03-23T01:04:53;14.40;63.10
6752;DHT22;3413;47.680;9.166;2024-03-23T01:09:54;14.40;63.10
6752;DHT22;3413;47.680;9.166;2024-03-23T01:14:55;14.30;63.10
6752;DHT22;3413;47.680;9.166;2024-03-23T01:19:56;14.20;63.10
6752;DHT22;3413;47.680;9.166;2024-03-23T01:24:56;14.10;63.10
6752;DHT22;3413;47.680;9.166;2024-03-23T01:29:57;14.10;63.10
6752;DHT22;3413;47.680;9.166;2024-03-23T01:34:58;14.00;63.10
6752;DHT22;3413;47.680;9.166;2024-03-23T01:39:59;13.90;63.10
6752;DHT22;3413;47.680;9.166;2024-03-23T01:45:00;13.80;63.00
6752;DHT22;3413;47.680;9.166;2024-03-23T01:50:02;13.70;63.00
6752;DHT22;3413;47.680;9.166;2024-03-23T01:55:03;13.70;63.10
6752;DHT22;3413;47.680;9.166;2024-03-23T02:00:04;13.60;63.00
6752;DHT22;3413;47.680;9.166;2024-03-23T02:05:13;13.60;63.10
6752;DHT22;3413;47.680;9.166;2024-03-23T02:10:14;13.40;63.20
6752;DHT22;3413;47.680;9.166;2024-03-23T02:15:15;13.30;63.10
6752;DHT22;3413;47.680;9.166;2024-03-23T02:20:17;13.30;63.30
6752;DHT22;3413;47.680;9.166;2024-03-23T02:25:18;13.40;63.40
6752;DHT22;3413;47.680;9.166;2024-03-23T02:30:19;13.40;63.40
6752;DHT22;3413;47.680;9.166;2024-03-23T02:35:19;13.50;63.40
6752;DHT22;3413;47.680;9.166;2024-03-23T02:40:20;13.50;63.40
6752;DHT22;3413;47.680;9.166;2024-03-23T02:45:21;13.50;63.60
6752;DHT22;3413;47.680;9.166;2024-03-23T02:50:23;13.50;63.50
6752;DHT22;3413;47.680;9.166;2024-03-23T02:55:24;13.50;63.60
6752;DHT22;3413;47.680;9.166;2024-03-23T03:00:25;13.50;63.70
6752;DHT22;3413;47.680;9.166;2024-03-23T03:05:26;13.50;63.80
6752;DHT22;3413;47.680;9.166;2024-03-23T03:10:26;13.50;63.80
6752;DHT22;3413;47.680;9.166;2024-03-23T03:15:28;13.60;63.90
6752;DHT22;3413;47.680;9.166;2024-03-23T03:20:29;13.50;63.80
6752;DHT22;3413;47.680;9.166;2024-03-23T03:25:30;13.50;63.90
6752;DHT22;3413;47.680;9.166;2024-03-23T03:30:30;13.60;63.90
6752;DHT22;3413;47.680;9.166;2024-03-23T03:35:31;13.50;64.00
6752;DHT22;3413;47.680;9.166;2024-03-23T03:40:32;13.40;63.90
6752;DHT22;3413;47.680;9.166;2024-03-23T03:45:33;13.40;64.00
6752;DHT22;3413;47.680;9.166;2024-03-23T03:50:34;13.40;64.10
6752;DHT22;3413;47.680;9.166;2024-03-23T03:55:36;13.40;64.10
6752;DHT22;3413;47.680;9.166;2024-03-23T04:00:37;13.50;64.10
6752;DHT22;3413;47.680;9.166;2024-03-23T04:05:37;13.40;64.20
6752;DHT22;3413;47.680;9.166;2024-03-23T04:10:38;13.50;64.30
6752;DHT22;3413;47.680;9.166;2024-03-23T04:15:39;13.50;64.30
6752;DHT22;3413;47.680;9.166;2024-03-23T04:20:41;13.50;64.20
6752;DHT22;3413;47.680;9.166;2024-03-23T04:25:42;13.50;64.20
6752;DHT22;3413;47.680;9.166;2024-03-23T04:30:42;13.40;64.10
6752;DHT22;3413;47.680;9.166;2024-03-23T04:35:43;13.40;64.20
6752;DHT22;3413;47.680;9.166;2024-03-23T04:40:44;13.40;64.30
6752;DHT22;3413;47.680;9.166;2024-03-23T04:45:45;13.50;64.40
6752;DHT22;3413;47.680;9.166;2024-03-23T04:50:46;13.50;64.40
6752;DHT22;3413;47.680;9.166;2024-03-23T04:55:48;13.40;64.30
6752;DHT22;3413;47.680;9.166;2024-03-23T05:00:56;13.40;64.40
6752;DHT22;3413;47.680;9.166;2024-03-23T05:05:57;13.30;64.40
6752;DHT22;3413;47.680;9.166;2024-03-23T05:10:58;13.40;64.50
6752;DHT22;3413;47.680;9.166;2024-03-23T05:15:58;13.30;64.40
6752;DHT22;3413;47.680;9.166;2024-03-23T05:20:59;13.30;64.50
6752;DHT22;3413;47.680;9.166;2024-03-23T05:26:00;13.30;64.60
6752;DHT22;3413;47.680;9.166;2024-03-23T05:31:01;13.40;65.40
6752;DHT22;3413;47.680;9.166;2024-03-23T05:36:03;13.50;64.80
6752;DHT22;3413;47.680;9.166;2024-03-23T05:41:04;13.50;64.80
6752;DHT22;3413;47.680;9.166;2024-03-23T05:46:06;13.60;65.00
6752;DHT22;3413;47.680;9.166;2024-03-23T05:51:08;13.70;65.10
6752;DHT22;3413;47.680;9.166;2024-03-23T05:56:09;13.90;65.30
6752;DHT22;3413;47.680;9.166;2024-03-23T06:01:10;14.10;65.50
6752;DHT22;3413;47.680;9.166;2024-03-23T06:06:11;14.20;65.60
6752;DHT22;3413;47.680;9.166;2024-03-23T06:11:13;14.20;65.60
6752;DHT22;3413;47.680;9.166;2024-03-23T06:16:14;14.20;65.80
6752;DHT22;3413;47.680;9.166;2024-03-23T06:21:15;14.20;66.10
6752;DHT22;3413;47.680;9.166;2024-03-23T06:26:17;14.20;66.40
6752;DHT22;3413;47.680;9.166;2024-03-23T06:31:18;14.30;66.60
6752;DHT22;3413;47.680;9.166;2024-03-23T06:36:19;14.30;66.80
6752;DHT22;3413;47.680;9.166;2024-03-23T06:41:20;14.30;67.00
6752;DHT22;3413;47.680;9.166;2024-03-23T06:46:21;14.10;67.00
6752;DHT22;3413;47.680;9.166;2024-03-23T06:51:22;14.10;67.30
6752;DHT22;3413;47.680;9.166;2024-03-23T06:56:23;14.00;67.50
6752;DHT22;3413;47.680;9.166;2024-03-23T07:01:24;13.90;67.70
6752;DHT22;3413;47.680;9.166;2024-03-23T07:06:25;13.90;67.80
6752;DHT22;3413;47.680;9.166;2024-03-23T07:11:26;13.80;67.80
6752;DHT22;3413;47.680;9.166;2024-03-23T07:16:27;13.80;67.90
6752;DHT22;3413;47.680;9.166;2024-03-23T07:21:28;13.90;68.10
6752;DHT22;3413;47.680;9.166;2024-03-23T07:26:29;13.80;68.00
6752;DHT22;3413;47.680;9.166;2024-03-23T07:31:30;13.80;68.10
6752;DHT22;3413;47.680;9.166;2024-03-23T07:36:31;13.90;68.10
6752;DHT22;3413;47.680;9.166;2024-03-23T07:41:32;13.90;68.20
6752;DHT22;3413;47.680;9.166;2024-03-23T07:46:32;14.00;68.20
6752;DHT22;3413;47.680;9.166;2024-03-23T07:51:33;14.10;68.10
6752;DHT22;3413;47.680;9.166;2024-03-23T07:56:35;14.00;68.30
6752;DHT22;3413;47.680;9.166;2024-03-23T08:01:36;14.00;68.60
6752;DHT22;3413;47.680;9.166;2024-03-23T08:06:38;14.10;68.60
6752;DHT22;3413;47.680;9.166;2024-03-23T08:11:39;14.20;68.60
6752;DHT22;3413;47.680;9.166;2024-03-23T08:16:40;14.20;68.50
6752;DHT22;3413;47.680;9.166;2024-03-23T08:21:42;14.20;68.70
6752;DHT22;3413;47.680;9.166;2024-03-23T08:26:43;14.20;68.80
6752;DHT22;3413;47.680;9.166;2024-03-23T08:31:44;14.00;68.50
6752;DHT22;3413;47.680;9.166;2024-03-23T08:36:45;13.80;68.30
6752;DHT22;3413;47.680;9.166;2024-03-23T08:41:46;13.50;68.10
6752;DHT22;3413;47.680;9.166;2024-03-23T08:46:47;13.10;67.90
6752;DHT22;3413;47.680;9.166;2024-03-23T08:51:47;12.80;67.80
6752;DHT22;3413;47.680;9.166;2024-03-23T08:56:49;12.60;67.70
6752;DHT22;3413;47.680;9.166;2024-03-23T09:01:50;12.60;67.60
6752;DHT22;3413;47.680;9.166;2024-03-23T09:06:51;12.60;67.70
6752;DHT22;3413;47.680;9.166;2024-03-23T09:11:52;12.60;67.60
6752;DHT22;3413;47.680;9.166;2024-03-23T09:16:53;12.50;67.50
6752;DHT22;3413;47.680;9.166;2024-03-23T09:21:54;12.50;67.40
6752;DHT22;3413;47.680;9.166;2024-03-23T09:26:55;12.30;67.30
6752;DHT22;3413;47.680;9.166;2024-03-23T09:31:56;12.30;67.20
6752;DHT22;3413;47.680;9.166;2024-03-23T09:36:58;12.30;67.20
6752;DHT22;3413;47.680;9.166;2024-03-23T09:41:59;12.40;67.10
6752;DHT22;3413;47.680;9.166;2024-03-23T09:47:00;12.40;67.00
6752;DHT22;3413;47.680;9.166;2024-03-23T09:52:03;12.50;67.30
6752;DHT22;3413;47.680;9.166;2024-03-23T09:57:04;12.40;66.90
6752;DHT22;3413;47.680;9.166;2024-03-23T10:02:07;12.30;66.90
6752;DHT22;3413;47.680;9.166;2024-03-23T10:07:21;12.40;66.90
6752;DHT22;3413;47.680;9.166;2024-03-23T10:12:25;12.50;66.80
6752;DHT22;3413;47.680;9.166;2024-03-23T10:17:26;12.50;66.80
6752;DHT22;3413;47.680;9.166;2024-03-23T10:22:27;12.60;66.80
6752;DHT22;3413;47.680;9.166;2024-03-23T10:27:28;12.70;66.90
6752;DHT22;3413;47.680;9.166;2024-03-23T10:32:29;12.80;66.90
6752;DHT22;3413;47.680;9.166;2024-03-23T10:37:30;12.80;66.70
6752;DHT22;3413;47.680;9.166;2024-03-23T10:42:33;12.90;66.70
6752;DHT22;3413;47.680;9.166;2024-03-23T10:47:36;12.80;66.50
6752;DHT22;3413;47.680;9.166;2024-03-23T10:52:37;12.80;66.40
6752;DHT22;3413;47.680;9.166;2024-03-23T10:57:55;12.80;66.30
6752;DHT22;3413;47.680;9.166;2024-03-23T11:02:59;13.00;66.50
6752;DHT22;3413;47.680;9.166;2024-03-23T11:08:00;13.10;66.50
6752;DHT22;3413;47.680;9.166;2024-03-23T11:13:27;13.30;66.50
6752;DHT22;3413;47.680;9.166;2024-03-23T11:18:30;13.50;66.80
6752;DHT22;3413;47.680;9.166;2024-03-23T11:23:31;13.80;67.20
6752;DHT22;3413;47.680;9.166;2024-03-23T11:28:32;14.00;67.20
6752;DHT22;3413;47.680;9.166;2024-03-23T11:33:33;14.20;66.70
6752;DHT22;3413;47.680;9.166;2024-03-23T11:38:36;14.30;66.30
6752;DHT22;3413;47.680;9.166;2024-03-23T11:43:37;14.50;66.20
6752;DHT22;3413;47.680;9.166;2024-03-23T11:48:38;14.80;66.40
6752;DHT22;3413;47.680;9.166;2024-03-23T11:53:40;14.80;65.60
6752;DHT22;3413;47.680;9.166;2024-03-23T11:58:41;14.90;65.20
6752;DHT22;3413;47.680;9.166;2024-03-23T12:03:44;14.90;65.00
6752;DHT22;3413;47.680;9.166;2024-03-23T12:08:45;15.10;64.50
6752;DHT22;3413;47.680;9.166;2024-03-23T12:13:46;15.10;64.20
6752;DHT22;3413;47.680;9.166;2024-03-23T12:18:49;15.20;64.10
6752;DHT22;3413;47.680;9.166;2024-03-23T12:23:50;15.20;63.90
6752;DHT22;3413;47.680;9.166;2024-03-23T12:28:52;15.10;63.80
6752;DHT22;3413;47.680;9.166;2024-03-23T12:33:53;15.30;63.60
6752;DHT22;3413;47.680;9.166;2024-03-23T12:38:54;15.10;63.10
6752;DHT22;3413;47.680;9.166;2024-03-23T12:43:55;14.90;62.70
6752;DHT22;3413;47.680;9.166;2024-03-23T12:48:56;14.70;62.50
6752;DHT22;3413;47.680;9.166;2024-03-23T12:53:58;14.50;62.40
6752;DHT22;3413;47.680;9.166;2024-03-23T12:58:59;14.40;62.60
6752;DHT22;3413;47.680;9.166;2024-03-23T13:04:00;14.40;63.00
6752;DHT22;3413;47.680;9.166;2024-03-23T13:09:03;14.50;63.50
6752;DHT22;3413;47.680;9.166;2024-03-23T13:14:05;14.50;63.40
6752;DHT22;3413;47.680;9.166;2024-03-23T13:19:07;14.50;63.80
6752;DHT22;3413;47.680;9.166;2024-03-23T13:24:08;14.50;63.70
6752;DHT22;3413;47.680;9.166;2024-03-23T13:29:09;14.40;63.70
6752;DHT22;3413;47.680;9.166;2024-03-23T13:34:10;14.50;63.80
6752;DHT22;3413;47.680;9.166;2024-03-23T13:39:11;14.50;63.50
6752;DHT22;3413;47.680;9.166;2024-03-23T13:44:13;14.60;63.30
6752;DHT22;3413;47.680;9.166;2024-03-23T13:49:27;14.60;63.10
6752;DHT22;3413;47.680;9.166;2024-03-23T13:54:29;14.70;63.10
6752;DHT22;3413;47.680;9.166;2024-03-23T13:59:29;14.90;63.20
6752;DHT22;3413;47.680;9.166;2024-03-23T14:04:30;14.80;62.60
6752;DHT22;3413;47.680;9.166;2024-03-23T14:09:31;14.80;62.40
6752;DHT22;3413;47.680;9.166;2024-03-23T14:14:33;14.80;62.40
6752;DHT22;3413;47.680;9.166;2024-03-23T14:19:34;14.80;62.30
6752;DHT22;3413;47.680;9.166;2024-03-23T14:24:35;14.70;61.70
6752;DHT22;3413;47.680;9.166;2024-03-23T14:29:37;14.50;61.30
6752;DHT22;3413;47.680;9.166;2024-03-23T14:34:38;14.10;60.70
6752;DHT22;3413;47.680;9.166;2024-03-23T14:39:39;14.10;61.10
6752;DHT22;3413;47.680;9.166;2024-03-23T14:44:42;14.10;60.90
6752;DHT22;3413;47.680;9.166;2024-03-23T14:49:44;14.10;60.70
6752;DHT22;3413;47.680;9.166;2024-03-23T14:54:48;14.10;60.50
6752;DHT22;3413;47.680;9.166;2024-03-23T14:59:49;14.00;60.30
6752;DHT22;3413;47.680;9.166;2024-03-23T15:04:50;13.90;60.50
6752;DHT22;3413;47.680;9.166;2024-03-23T15:09:51;14.10;60.50
6752;DHT22;3413;47.680;9.166;2024-03-23T15:14:51;14.10;60.50
6752;DHT22;3413;47.680;9.166;2024-03-23T15:19:53;14.10;60.40
6752;DHT22;3413;47.680;9.166;2024-03-23T15:24:56;14.10;60.30
6752;DHT22;3413;47.680;9.166;2024-03-23T15:29:57;14.10;60.10
6752;DHT22;3413;47.680;9.166;2024-03-23T15:34:58;14.00;59.90
6752;DHT22;3413;47.680;9.166;2024-03-23T15:39:59;13.90;59.70
6752;DHT22;3413;47.680;9.166;2024-03-23T15:45:00;13.80;59.60
6752;DHT22;3413;47.680;9.166;2024-03-23T15:50:01;13.80;59.40
6752;DHT22;3413;47.680;9.166;2024-03-23T15:55:04;13.80;59.40
6752;DHT22;3413;47.680;9.166;2024-03-23T16:00:11;13.90;59.50
6752;DHT22;3413;47.680;9.166;2024-03-23T16:05:13;13.90;59.20
6752;DHT22;3413;47.680;9.166;2024-03-23T16:10:15;13.90;59.00
6752;DHT22;3413;47.680;9.166;2024-03-23T16:15:16;14.10;59.00
6752;DHT22;3413;47.680;9.166;2024-03-23T16:20:16;13.90;58.60
6752;DHT22;3413;47.680;9.166;2024-03-23T16:25:17;13.80;58.50
6752;DHT22;3413;47.680;9.166;2024-03-23T16:30:20;13.70;58.50
6752;DHT22;3413;47.680;9.166;2024-03-23T16:35:21;13.60;58.40
6752;DHT22;3413;47.680;9.166;2024-03-23T16:40:22;13.50;58.40
6752;DHT22;3413;47.680;9.166;2024-03-23T16:45:25;13.50;58.30
6752;DHT22;3413;47.680;9.166;2024-03-23T16:50:26;13.20;58.10
6752;DHT22;3413;47.680;9.166;2024-03-23T16:55:27;13.00;58.10
6752;DHT22;3413;47.680;9.166;2024-03-23T17:00:27;13.00;58.30
6752;DHT22;3413;47.680;9.166;2024-03-23T17:05:29;12.90;58.30
6752;DHT22;3413;47.680;9.166;2024-03-23T17:10:30;12.90;58.20
6752;DHT22;3413;47.680;9.166;2024-03-23T17:15:31;12.80;58.20
6752;DHT22;3413;47.680;9.166;2024-03-23T17:20:32;12.80;58.10
6752;DHT22;3413;47.680;9.166;2024-03-23T17:25:33;12.80;58.20
6752;DHT22;3413;47.680;9.166;2024-03-23T17:30:34;12.70;58.10
6752;DHT22;3413;47.680;9.166;2024-03-23T17:35:35;12.60;58.00
6752;DHT22;3413;47.680;9.166;2024-03-23T17:40:36;12.40;57.90
6752;DHT22;3413;47.680;9.166;2024-03-23T17:45:37;12.30;58.10
6752;DHT22;3413;47.680;9.166;2024-03-23T17:50:38;12.20;58.10
6752;DHT22;3413;47.680;9.166;2024-03-23T17:55:39;12.20;58.10
6752;DHT22;3413;47.680;9.166;2024-03-23T18:00:40;12.00;58.00
6752;DHT22;3413;47.680;9.166;2024-03-23T18:05:40;12.00;58.00
6752;DHT22;3413;47.680;9.166;2024-03-23T18:10:42;11.90;58.00
6752;DHT22;3413;47.680;9.166;2024-03-23T18:15:42;11.80;58.00
6752;DHT22;3413;47.680;9.166;2024-03-23T18:20:43;11.60;57.90
6752;DHT22;3413;47.680;9.166;2024-03-23T18:25:54;11.20;57.90
6752;DHT22;3413;47.680;9.166;2024-03-23T18:31:00;10.60;58.10
6752;DHT22;3413;47.680;9.166;2024-03-23T18:36:02;10.20;58.40
6752;DHT22;3413;47.680;9.166;2024-03-23T18:41:04;10.00;58.40
6752;DHT22;3413;47.680;9.166;2024-03-23T18:46:05;9.40;59.40
6752;DHT22;3413;47.680;9.166;2024-03-23T18:51:06;9.00;59.60
6752;DHT22;3413;47.680;9.166;2024-03-23T18:56:07;8.90;59.70
6752;DHT22;3413;47.680;9.166;2024-03-23T19:01:09;8.80;59.50
6752;DHT22;3413;47.680;9.166;2024-03-23T19:06:10;8.60;59.40
6752;DHT22;3413;47.680;9.166;2024-03-23T19:11:11;8.40;59.30
6752;DHT22;3413;47.680;9.166;2024-03-23T19:16:12;8.40;59.50
6752;DHT22;3413;47.680;9.166;2024-03-23T19:21:13;8.30;59.60
6752;DHT22;3413;47.680;9.166;2024-03-23T19:26:14;8.30;59.70
6752;DHT22;3413;47.680;9.166;2024-03-23T19:31:15;8.40;59.80
6752;DHT22;3413;47.680;9.166;2024-03-23T19:36:17;8.50;59.90
6752;DHT22;3413;47.680;9.166;2024-03-23T19:41:18;8.50;60.00
6752;DHT22;3413;47.680;9.166;2024-03-23T19:46:19;8.70;59.90
6752;DHT22;3413;47.680;9.166;2024-03-23T19:51:20;8.80;59.90
6752;DHT22;3413;47.680;9.166;2024-03-23T19:56:20;8.70;60.30
6752;DHT22;3413;47.680;9.166;2024-03-23T20:01:21;8.80;60.10
6752;DHT22;3413;47.680;9.166;2024-03-23T20:06:22;8.80;60.00
6752;DHT22;3413;47.680;9.166;2024-03-23T20:11:26;8.70;60.20
6752;DHT22;3413;47.680;9.166;2024-03-23T20:16:27;8.60;60.30
6752;DHT22;3413;47.680;9.166;2024-03-23T20:21:28;8.50;60.50
6752;DHT22;3413;47.680;9.166;2024-03-23T20:26:29;8.60;60.40
6752;DHT22;3413;47.680;9.166;2024-03-23T20:31:30;8.60;60.50
6752;DHT22;3413;47.680;9.166;2024-03-23T20:36:31;8.50;60.30
6752;DHT22;3413;47.680;9.166;2024-03-23T20:41:32;8.50;60.20
6752;DHT22;3413;47.680;9.166;2024-03-23T20:46:33;8.40;60.20
6752;DHT22;3413;47.680;9.166;2024-03-23T20:51:34;8.30;60.30
6752;DHT22;3413;47.680;9.166;2024-03-23T20:56:35;8.30;60.50
6752;DHT22;3413;47.680;9.166;2024-03-23T21:01:36;8.30;60.70
6752;DHT22;3413;47.680;9.166;2024-03-23T21:06:37;8.20;60.70
6752;DHT22;3413;47.680;9.166;2024-03-23T21:11:39;8.20;60.70
6752;DHT22;3413;47.680;9.166;2024-03-23T21:16:40;8.20;60.80
6752;DHT22;3413;47.680;9.166;2024-03-23T21:21:43;8.20;60.90
6752;DHT22;3413;47.680;9.166;2024-03-23T21:26:44;8.10;61.00
6752;DHT22;3413;47.680;9.166;2024-03-23T21:31:45;8.10;61.30
6752;DHT22;3413;47.680;9.166;2024-03-23T21:36:48;7.90;61.40
6752;DHT22;3413;47.680;9.166;2024-03-23T21:41:49;7.90;61.50
6752;DHT22;3413;47.680;9.166;2024-03-23T21:46:49;7.80;61.60
6752;DHT22;3413;47.680;9.166;2024-03-23T21:51:50;7.80;61.80
6752;DHT22;3413;47.680;9.166;2024-03-23T21:56:52;7.80;61.80
6752;DHT22;3413;47.680;9.166;2024-03-23T22:01:52;7.90;61.90
6752;DHT22;3413;47.680;9.166;2024-03-23T22:06:54;7.80;61.80
6752;DHT22;3413;47.680;9.166;2024-03-23T22:11:55;7.90;62.00
6752;DHT22;3413;47.680;9.166;2024-03-23T22:16:57;8.00;62.00
6752;DHT22;3413;47.680;9.166;2024-03-23T22:21:58;7.90;61.80
6752;DHT22;3413;47.680;9.166;2024-03-23T22:26:59;7.80;61.90
6752;DHT22;3413;47.680;9.166;2024-03-23T22:32:00;7.80;62.10
6752;DHT22;3413;47.680;9.166;2024-03-23T22:37:03;7.80;62.40
6752;DHT22;3413;47.680;9.166;2024-03-23T22:42:04;7.70;62.30
6752;DHT22;3413;47.680;9.166;2024-03-23T22:47:05;7.80;62.40
6752;DHT22;3413;47.680;9.166;2024-03-23T22:52:06;7.90;62.30
6752;DHT22;3413;47.680;9.166;2024-03-23T22:57:07;7.90;62.40
6752;DHT22;3413;47.680;9.166;2024-03-23T23:02:08;8.00;62.50
6752;DHT22;3413;47.680;9.166;2024-03-23T23:07:09;8.00;62.60
6752;DHT22;3413;47.680;9.166;2024-03-23T23:12:10;8.10;62.70
6752;DHT22;3413;47.680;9.166;2024-03-23T23:17:11;8.10;62.70
6752;DHT22;3413;47.680;9.166;2024-03-23T23:22:12;8.10;62.90
6752;DHT22;3413;47.680;9.166;2024-03-23T23:27:13;8.20;63.00
6752;DHT22;3413;47.680;9.166;2024-03-23T23:32:14;8.20;62.80
6752;DHT22;3413;47.680;9.166;2024-03-23T23:37:14;8.30;62.80
6752;DHT22;3413;47.680;9.166;2024-03-23T23:42:16;8.20;63.00
6752;DHT22;3413;47.680;9.166;2024-03-23T23:47:17;8.30;62.90
6752;DHT22;3413;47.680;9.166;2024-03-23T23:52:18;8.40;62.90
6752;DHT22;3413;47.680;9.166;2024-03-23T23:57:19;8.50;63.00
